Volodymyr-Volyns'Kyi, Ukraine
Current Conditions -  °F | °C
As of 10:30 AM on Wednesday 22 Oct 2014 (Local Time) from UKLL Reporting Station
Clear Clear  
Wind Chill: 52°   Ceiling: Unl
Heat Index: 52°   Visibility: 6mi
Dew Point: 48°   Wind: 11mph
Humidity: 88%   Direction: 130°SE
Pressure: 29.62"   Gusts: NA
Location:  50.83°N, 24.32°E
Report Text: UKLL 220730Z 13005MPS CAVOK 11/09 Q1003 13290065 NOSIG
Loading
Personal Weather Stations






























Interactive Weather Map
Tropical Storm Tracking
New forecast layout! Learn more

10-Day Weather Forecast

Advertisements
Track Severe Weather on mobile